Terminal Aerodrome Forecast
Issued by NWS Binghamton, NY

Home | Current Version | Previous Version | Text Only | Print | Product List | Glossary On
Versions: 1 2 3 4 5 6 7 8 9 10 11 12 13 14 15 16 17
000
FTUS41 KBGM 110537
TAFSYR
TAF
KSYR 110537Z 1106/1206 24008KT P6SM -SN OVC035
     FM110800 27007KT 4SM -SN OVC025
      TEMPO 1109/1113 1SM -SN OVC015
     FM111300 31007KT 4SM -SN OVC025
     FM111500 29007KT P6SM BKN035
     FM112200 VRB04KT P6SM BKN045
     FM120400 13007KT 2SM -SN OVC025=

USA.gov is the U.S. government's official web portal to all federal, state and local government web resources and services.